createdAt,value
2019-03-01T00:00:31.290Z,9.10
2019-03-01T00:02:59.725Z,9.10
2019-03-01T00:05:47.594Z,9.10
2019-03-01T00:08:18.046Z,9.10
2019-03-01T00:11:07.771Z,9.00
2019-03-01T00:13:51.170Z,9.10
2019-03-01T00:16:31.646Z,9.10
2019-03-01T00:19:11.898Z,9.00
2019-03-01T00:21:49.030Z,9.10
2019-03-01T00:24:23.378Z,9.00
2019-03-01T00:27:14.145Z,9.00
2019-03-01T00:29:48.615Z,9.00
2019-03-01T00:32:29.031Z,9.00
2019-03-01T00:35:03.337Z,9.00
2019-03-01T00:37:51.519Z,9.00
2019-03-01T00:40:37.972Z,9.10
2019-03-01T00:43:15.386Z,9.10
2019-03-01T00:45:43.823Z,9.10
2019-03-01T00:48:12.238Z,9.10
2019-03-01T00:50:40.671Z,9.00
2019-03-01T00:53:09.082Z,9.00
2019-03-01T00:55:37.494Z,9.00
2019-03-01T00:58:06.039Z,9.00
2019-03-01T01:00:40.546Z,9.00
2019-03-01T01:03:09.115Z,8.90
2019-03-01T01:05:37.598Z,8.90
2019-03-01T01:08:06.026Z,8.90
2019-03-01T01:10:34.454Z,8.90
2019-03-01T01:13:02.896Z,9.00
2019-03-01T01:15:31.339Z,8.90
2019-03-01T01:17:59.750Z,9.00
2019-03-01T01:20:28.251Z,9.00
2019-03-01T01:22:56.667Z,9.20
2019-03-01T01:25:25.095Z,9.10
2019-03-01T01:27:53.511Z,9.00
2019-03-01T01:30:21.946Z,9.10
2019-03-01T01:32:50.374Z,9.10
2019-03-01T01:35:19.065Z,9.10
2019-03-01T01:37:47.489Z,9.10
2019-03-01T01:40:15.994Z,9.10
2019-03-01T01:42:44.431Z,9.00
2019-03-01T01:45:12.978Z,9.00
2019-03-01T01:47:41.403Z,9.00
2019-03-01T01:50:10.258Z,8.90
2019-03-01T01:52:38.708Z,8.90
2019-03-01T01:55:07.267Z,9.00
2019-03-01T01:57:35.684Z,9.00
2019-03-01T02:00:07.019Z,9.00
2019-03-01T02:02:35.433Z,9.00
2019-03-01T02:05:04.588Z,9.10
2019-03-01T02:07:33.203Z,9.00
2019-03-01T02:10:01.618Z,9.00
2019-03-01T02:12:30.061Z,9.00
2019-03-01T02:14:58.467Z,9.00
2019-03-01T02:17:26.878Z,9.00
2019-03-01T02:19:55.311Z,9.00
2019-03-01T02:22:23.740Z,8.90
2019-03-01T02:24:52.168Z,8.90
2019-03-01T02:27:23.206Z,8.80
2019-03-01T02:29:51.646Z,8.80
2019-03-01T02:32:39.521Z,8.90
2019-03-01T02:35:10.767Z,8.90
2019-03-01T02:37:39.201Z,8.90
2019-03-01T02:40:12.878Z,8.90
2019-03-01T02:42:41.462Z,8.80
2019-03-01T02:45:12.617Z,8.80
2019-03-01T02:47:41.019Z,8.80
2019-03-01T02:50:11.707Z,8.80
2019-03-01T02:52:40.114Z,8.80
2019-03-01T02:55:13.953Z,8.70
2019-03-01T02:57:42.450Z,8.70
2019-03-01T03:00:14.420Z,8.70
2019-03-01T03:02:42.984Z,8.70
2019-03-01T03:05:11.536Z,8.70
2019-03-01T03:07:41.598Z,8.70
2019-03-01T03:10:10.260Z,8.70
2019-03-01T03:12:38.686Z,8.70
2019-03-01T03:15:09.803Z,8.70
2019-03-01T03:17:38.236Z,8.70
2019-03-01T03:20:10.674Z,8.70
2019-03-01T03:22:39.109Z,8.80
2019-03-01T03:25:12.831Z,8.80
2019-03-01T03:27:41.249Z,8.80
2019-03-01T03:30:15.164Z,8.70
2019-03-01T03:32:43.583Z,8.70
2019-03-01T03:35:12.092Z,8.70
2019-03-01T03:37:40.512Z,8.70
2019-03-01T03:40:14.239Z,8.70
2019-03-01T03:42:42.749Z,8.60
2019-03-01T03:45:14.295Z,8.50
2019-03-01T03:47:42.862Z,8.50
2019-03-01T03:50:13.163Z,8.50
2019-03-01T03:52:41.665Z,8.60
2019-03-01T03:55:17.549Z,8.60
2019-03-01T03:57:46.206Z,8.60
2019-03-01T04:00:19.867Z,8.50
2019-03-01T04:02:48.466Z,8.50
2019-03-01T04:05:17.037Z,8.40
2019-03-01T04:07:46.280Z,8.50
2019-03-01T04:10:14.921Z,8.50
2019-03-01T04:12:43.351Z,8.50
2019-03-01T04:15:18.588Z,8.50
2019-03-01T04:17:47.011Z,8.50
2019-03-01T04:20:17.092Z,8.50
2019-03-01T04:22:45.678Z,8.60
2019-03-01T04:25:14.268Z,8.50
2019-03-01T04:27:42.875Z,8.50
2019-03-01T04:30:14.464Z,8.60
2019-03-01T04:32:42.871Z,8.60
2019-03-01T04:35:11.423Z,8.50
2019-03-01T04:37:39.861Z,8.60
2019-03-01T04:40:11.019Z,8.80
2019-03-01T04:42:39.458Z,8.70
2019-03-01T04:45:10.602Z,8.60
2019-03-01T04:47:39.030Z,8.70
2019-03-01T04:50:09.687Z,8.70
2019-03-01T04:52:38.234Z,8.80
2019-03-01T04:55:09.771Z,8.80
2019-03-01T04:57:38.178Z,8.70
2019-03-01T05:00:15.120Z,8.80
2019-03-01T05:02:43.602Z,8.80
2019-03-01T05:05:12.275Z,8.70
2019-03-01T05:07:40.710Z,8.70
2019-03-01T05:10:11.767Z,8.80
2019-03-01T05:12:40.266Z,8.80
2019-03-01T05:15:11.730Z,8.80
2019-03-01T05:17:40.140Z,8.80
2019-03-01T05:20:08.627Z,8.80
2019-03-01T05:22:37.059Z,9.00
2019-03-01T05:25:07.907Z,9.00
2019-03-01T05:27:36.422Z,9.10
2019-03-01T05:30:08.004Z,8.80
2019-03-01T05:32:36.414Z,8.70
2019-03-01T05:35:05.781Z,8.70
2019-03-01T05:37:34.214Z,8.60
2019-03-01T05:40:02.623Z,8.60
2019-03-01T05:42:31.032Z,8.70
2019-03-01T05:45:00.515Z,8.80
2019-03-01T05:47:29.174Z,8.70
2019-03-01T05:49:57.595Z,8.70
2019-03-01T05:52:26.003Z,8.70
2019-03-01T05:54:54.432Z,8.80
2019-03-01T05:57:22.847Z,8.60
2019-03-01T05:59:51.288Z,8.50
2019-03-01T06:02:28.407Z,8.40
2019-03-01T06:04:58.708Z,8.40
2019-03-01T06:07:45.339Z,8.40
2019-03-01T06:10:22.366Z,8.40
2019-03-01T06:13:06.022Z,8.30
2019-03-01T06:15:39.967Z,8.30
2019-03-01T06:18:11.508Z,8.30
2019-03-01T06:20:48.707Z,8.30
2019-03-01T06:23:32.290Z,8.40
2019-03-01T06:26:40.565Z,8.40
2019-03-01T06:29:14.958Z,8.30
2019-03-01T06:31:58.021Z,8.40
2019-03-01T06:34:29.614Z,8.30
2019-03-01T06:37:09.947Z,8.30
2019-03-01T06:39:51.260Z,8.20
2019-03-01T06:42:37.951Z,8.20
2019-03-01T06:45:27.047Z,8.30
2019-03-01T06:47:55.488Z,8.20
2019-03-01T06:50:25.610Z,8.30
2019-03-01T06:52:54.108Z,8.30
2019-03-01T06:55:31.814Z,8.30
2019-03-01T06:58:00.230Z,8.30
2019-03-01T07:00:30.292Z,8.30
2019-03-01T07:03:01.660Z,8.30
2019-03-01T07:05:30.102Z,8.40
2019-03-01T07:07:58.710Z,8.40
2019-03-01T07:10:27.121Z,8.40
2019-03-01T07:12:55.531Z,8.40
2019-03-01T07:15:24.030Z,8.50
2019-03-01T07:17:52.444Z,8.50
2019-03-01T07:20:20.868Z,8.60
2019-03-01T07:22:49.294Z,8.60
2019-03-01T07:25:17.732Z,8.50
2019-03-01T07:27:46.154Z,8.40
2019-03-01T07:30:14.591Z,8.50
2019-03-01T07:32:43.011Z,8.40
2019-03-01T07:35:11.450Z,8.40
2019-03-01T07:37:39.867Z,8.50
2019-03-01T07:40:12.507Z,8.60
2019-03-01T07:42:40.939Z,8.50
2019-03-01T07:45:12.098Z,8.50
2019-03-01T07:47:40.546Z,8.40
2019-03-01T07:50:11.782Z,8.50
2019-03-01T07:52:40.222Z,8.50
2019-03-01T07:55:10.379Z,7.90
2019-03-01T07:57:38.801Z,8.50
2019-03-01T08:00:10.894Z,8.40
2019-03-01T08:02:40.810Z,8.50
2019-03-01T08:05:11.958Z,8.50
2019-03-01T08:07:40.519Z,8.40
2019-03-01T08:10:11.548Z,8.50
2019-03-01T08:12:42.383Z,8.50
2019-03-01T08:15:15.303Z,8.60
2019-03-01T08:17:43.806Z,8.70
2019-03-01T08:20:15.066Z,8.70
2019-03-01T08:22:48.662Z,8.60
2019-03-01T08:25:13.725Z,8.70
2019-03-01T08:27:45.866Z,8.60
2019-03-01T08:30:15.169Z,8.60
2019-03-01T08:32:43.697Z,8.70
2019-03-01T08:35:13.750Z,8.70
2019-03-01T08:37:42.285Z,8.80
2019-03-01T08:40:18.528Z,8.80
2019-03-01T08:42:47.135Z,8.70
2019-03-01T08:45:17.283Z,8.70
2019-03-01T08:47:48.663Z,8.70
2019-03-01T08:50:17.767Z,8.60
2019-03-01T08:52:46.725Z,8.70
2019-03-01T08:55:30.304Z,8.70
2019-03-01T08:58:02.852Z,8.70
2019-03-01T09:00:43.147Z,8.70
2019-03-01T09:03:32.591Z,8.70
2019-03-01T09:06:01.014Z,8.70
2019-03-01T09:08:29.475Z,8.70
2019-03-01T09:10:58.082Z,8.70
2019-03-01T09:13:26.502Z,8.60
2019-03-01T09:15:54.936Z,8.70
2019-03-01T09:18:23.375Z,8.70
2019-03-01T09:20:51.802Z,8.70
2019-03-01T09:23:25.287Z,8.70
2019-03-01T09:25:50.403Z,8.70
2019-03-01T09:28:18.837Z,8.70
2019-03-01T09:30:47.276Z,8.80
2019-03-01T09:33:17.132Z,8.70
2019-03-01T09:35:47.561Z,8.80
2019-03-01T09:38:17.758Z,8.90
2019-03-01T09:40:46.246Z,9.00
2019-03-01T09:43:14.683Z,9.00
2019-03-01T09:45:45.653Z,9.10
2019-03-01T09:48:13.375Z,9.10
2019-03-01T09:50:41.786Z,9.10
2019-03-01T09:53:10.225Z,9.20
2019-03-01T09:55:38.710Z,9.30
2019-03-01T09:58:08.463Z,9.40
2019-03-01T10:00:43.235Z,9.40
2019-03-01T10:03:13.313Z,9.30
2019-03-01T10:05:41.731Z,9.30
2019-03-01T10:08:10.154Z,9.30
2019-03-01T10:10:38.595Z,9.40
2019-03-01T10:13:07.031Z,9.40
2019-03-01T10:15:35.674Z,9.30
2019-03-01T10:18:04.276Z,9.30
2019-03-01T10:20:32.700Z,9.30
2019-03-01T10:23:01.138Z,9.20
2019-03-01T10:25:29.580Z,9.20
2019-03-01T10:27:58.013Z,9.10
2019-03-01T10:30:27.679Z,8.90
2019-03-01T10:32:56.354Z,8.90
2019-03-01T10:35:24.967Z,8.80
2019-03-01T10:37:53.763Z,8.80
2019-03-01T10:40:23.705Z,8.70
2019-03-01T10:42:52.122Z,8.70
2019-03-01T10:45:28.378Z,8.80
2019-03-01T10:47:56.854Z,8.80
2019-03-01T10:50:25.290Z,8.90
2019-03-01T10:52:53.862Z,8.90
2019-03-01T10:55:22.459Z,8.90
2019-03-01T10:57:51.066Z,8.90
2019-03-01T11:00:24.467Z,8.90
2019-03-01T11:02:52.987Z,8.90
2019-03-01T11:05:21.903Z,8.90
2019-03-01T11:07:51.772Z,8.80
2019-03-01T11:10:25.935Z,8.80
2019-03-01T11:12:54.407Z,8.90
2019-03-01T11:15:23.092Z,8.80
2019-03-01T11:17:51.598Z,8.80
2019-03-01T11:20:20.745Z,8.70
2019-03-01T11:22:49.448Z,8.70
2019-03-01T11:25:25.214Z,8.70
2019-03-01T11:27:53.703Z,8.70
2019-03-01T11:30:31.417Z,8.80
2019-03-01T11:32:59.840Z,8.80
2019-03-01T11:35:28.351Z,8.90
2019-03-01T11:37:56.854Z,8.90
2019-03-01T11:40:35.484Z,9.10
2019-03-01T11:43:04.573Z,9.10
2019-03-01T11:45:33.224Z,9.30
2019-03-01T11:48:01.680Z,9.40
2019-03-01T11:50:30.283Z,9.50
2019-03-01T11:52:58.776Z,9.60
2019-03-01T11:55:27.283Z,9.60
2019-03-01T11:57:55.793Z,9.50
2019-03-01T12:00:27.979Z,9.50
2019-03-01T12:02:56.467Z,9.40
2019-03-01T12:05:24.977Z,9.30
2019-03-01T12:07:53.385Z,9.30
2019-03-01T12:10:26.976Z,9.20
2019-03-01T12:12:55.422Z,9.20
2019-03-01T12:15:23.919Z,9.20
2019-03-01T12:17:52.343Z,9.10
2019-03-01T12:20:23.478Z,9.10
2019-03-01T12:22:51.937Z,9.00
2019-03-01T12:25:20.485Z,8.90
2019-03-01T12:27:48.970Z,8.90
2019-03-01T12:30:25.083Z,8.70
2019-03-01T12:32:53.520Z,8.60
2019-03-01T12:35:21.937Z,8.50
2019-03-01T12:37:50.395Z,8.60
2019-03-01T12:40:26.857Z,8.60
2019-03-01T12:42:55.512Z,8.60
2019-03-01T12:45:24.018Z,8.60
2019-03-01T12:47:52.567Z,8.60
2019-03-01T12:50:20.996Z,8.60
2019-03-01T12:52:49.704Z,8.60
2019-03-01T12:55:29.584Z,8.50
2019-03-01T12:57:58.024Z,8.50
2019-03-01T13:00:33.904Z,8.40
2019-03-01T13:03:05.253Z,8.30
2019-03-01T13:05:32.559Z,8.20
2019-03-01T13:08:00.981Z,8.10
2019-03-01T13:10:40.167Z,8.10
2019-03-01T13:13:08.805Z,7.90
2019-03-01T13:15:37.305Z,7.90
2019-03-01T13:18:05.794Z,7.70
2019-03-01T13:20:37.140Z,7.70
2019-03-01T13:23:06.033Z,7.70
2019-03-01T13:25:34.612Z,7.40
2019-03-01T13:28:03.115Z,7.30
2019-03-01T13:30:32.523Z,7.30
2019-03-01T13:33:02.472Z,7.30
2019-03-01T13:35:31.991Z,7.10
2019-03-01T13:38:00.421Z,7.20
2019-03-01T13:40:28.885Z,7.10
2019-03-01T13:42:57.321Z,6.90
2019-03-01T13:45:27.348Z,6.90
2019-03-01T13:47:55.959Z,6.90
2019-03-01T13:50:24.535Z,6.80
2019-03-01T13:52:53.015Z,6.90
2019-03-01T13:55:23.450Z,6.80
2019-03-01T13:57:51.963Z,6.70
2019-03-01T14:00:21.438Z,6.60
2019-03-01T14:02:50.294Z,6.60
2019-03-01T14:05:19.243Z,6.60
2019-03-01T14:07:48.575Z,6.60
2019-03-01T14:10:19.232Z,6.60
2019-03-01T14:12:47.678Z,6.60
2019-03-01T14:15:17.346Z,6.60
2019-03-01T14:17:45.846Z,6.50
2019-03-01T14:20:20.549Z,6.50
2019-03-01T14:22:47.856Z,6.50
2019-03-01T14:25:17.268Z,6.50
2019-03-01T14:27:46.243Z,6.50
2019-03-01T14:30:16.811Z,6.50
2019-03-01T14:32:45.300Z,6.50
2019-03-01T14:35:14.197Z,6.40
2019-03-01T14:37:42.745Z,6.40
2019-03-01T14:40:19.076Z,6.50
2019-03-01T14:42:47.696Z,6.50
2019-03-01T14:45:27.455Z,6.40
2019-03-01T14:47:56.211Z,6.40
2019-03-01T14:50:25.799Z,6.40
2019-03-01T14:52:58.111Z,6.40
2019-03-01T14:55:27.690Z,6.40
2019-03-01T14:58:07.854Z,6.40
2019-03-01T15:00:41.931Z,6.30
2019-03-01T15:03:34.621Z,6.30
2019-03-01T15:06:03.505Z,6.30
2019-03-01T15:08:32.030Z,6.30
2019-03-01T15:11:04.337Z,6.20
2019-03-01T15:13:34.770Z,6.20
2019-03-01T15:16:04.691Z,6.30
2019-03-01T15:18:34.699Z,6.20
2019-03-01T15:21:03.306Z,6.20
2019-03-01T15:23:31.811Z,6.20
2019-03-01T15:26:00.318Z,6.20
2019-03-01T15:28:28.742Z,6.10
2019-03-01T15:30:57.403Z,6.10
2019-03-01T15:33:25.880Z,6.20
2019-03-01T15:35:54.392Z,6.20
2019-03-01T15:38:23.918Z,6.10
2019-03-01T15:40:52.980Z,6.10
2019-03-01T15:43:21.506Z,6.00
2019-03-01T15:45:49.945Z,6.00
2019-03-01T15:48:18.371Z,6.00
2019-03-01T15:50:46.903Z,6.00
2019-03-01T15:53:15.374Z,6.00
2019-03-01T15:55:43.843Z,6.00
2019-03-01T15:58:12.278Z,6.00
2019-03-01T16:00:40.733Z,6.00
2019-03-01T16:03:09.405Z,5.90
2019-03-01T16:05:38.304Z,5.90
2019-03-01T16:08:08.367Z,6.00
2019-03-01T16:10:37.051Z,6.00
2019-03-01T16:13:08.272Z,5.90
2019-03-01T16:15:38.744Z,5.90
2019-03-01T16:18:06.157Z,5.90
2019-03-01T16:20:34.583Z,5.90
2019-03-01T16:23:03.022Z,5.80
2019-03-01T16:25:31.449Z,5.90
2019-03-01T16:27:59.884Z,5.80
2019-03-01T16:30:28.315Z,5.80
2019-03-01T16:32:56.734Z,5.80
2019-03-01T16:35:25.150Z,5.80
2019-03-01T16:38:01.595Z,5.80
2019-03-01T16:40:30.931Z,5.80
2019-03-01T16:42:59.346Z,5.80
2019-03-01T16:45:27.911Z,5.70
2019-03-01T16:47:56.367Z,5.70
2019-03-01T16:50:24.815Z,5.60
2019-03-01T16:52:53.257Z,5.70
2019-03-01T16:55:27.917Z,5.60
2019-03-01T16:58:06.262Z,5.60
2019-03-01T17:00:27.760Z,5.60
2019-03-01T17:03:04.871Z,5.60
2019-03-01T17:05:35.666Z,5.60
2019-03-01T17:08:05.933Z,5.60
2019-03-01T17:10:35.073Z,5.50
2019-03-01T17:13:03.565Z,5.60
2019-03-01T17:15:32.010Z,5.60
2019-03-01T17:18:00.515Z,5.50
2019-03-01T17:20:29.133Z,5.50
2019-03-01T17:22:59.765Z,5.50
2019-03-01T17:25:27.900Z,5.50
2019-03-01T17:27:56.301Z,5.50
2019-03-01T17:30:25.699Z,5.40
2019-03-01T17:32:54.551Z,5.40
2019-03-01T17:35:23.051Z,5.40
2019-03-01T17:37:51.462Z,5.40
2019-03-01T17:40:20.138Z,5.30
2019-03-01T17:42:49.182Z,5.30
2019-03-01T17:45:25.607Z,5.30
2019-03-01T17:47:55.407Z,5.30
2019-03-01T17:50:24.159Z,5.40
2019-03-01T17:52:52.619Z,5.40
2019-03-01T17:55:25.839Z,5.30
2019-03-01T17:57:54.289Z,5.30
2019-03-01T18:00:35.138Z,5.30
2019-03-01T18:03:04.360Z,5.20
2019-03-01T18:05:32.803Z,5.20
2019-03-01T18:08:03.789Z,5.10
2019-03-01T18:10:32.200Z,5.10
2019-03-01T18:13:01.475Z,5.10
2019-03-01T18:15:30.004Z,5.10
2019-03-01T18:17:58.500Z,5.00
2019-03-01T18:20:26.992Z,5.00
2019-03-01T18:22:55.415Z,5.00
2019-03-01T18:25:26.396Z,4.90
2019-03-01T18:27:54.066Z,4.80
2019-03-01T18:30:24.255Z,4.90
2019-03-01T18:32:52.705Z,4.90
2019-03-01T18:35:21.173Z,4.90
2019-03-01T18:37:51.462Z,4.90
2019-03-01T18:40:19.818Z,4.90
2019-03-01T18:42:48.264Z,4.90
2019-03-01T18:45:21.242Z,5.00
2019-03-01T18:47:49.715Z,5.00
2019-03-01T18:50:27.593Z,4.90
2019-03-01T18:52:57.447Z,4.90
2019-03-01T18:55:25.862Z,4.90
2019-03-01T18:57:54.387Z,4.90
2019-03-01T19:00:35.765Z,4.90
2019-03-01T19:03:05.526Z,4.90
2019-03-01T19:05:36.720Z,4.90
2019-03-01T19:08:05.876Z,4.90
2019-03-01T19:10:35.381Z,4.90
2019-03-01T19:13:03.913Z,4.90
2019-03-01T19:15:32.601Z,4.90
2019-03-01T19:18:01.073Z,4.90
2019-03-01T19:20:31.777Z,4.90
2019-03-01T19:23:00.230Z,4.90
2019-03-01T19:25:28.680Z,4.80
2019-03-01T19:27:57.132Z,4.80
2019-03-01T19:30:26.111Z,4.80
2019-03-01T19:32:54.588Z,4.80
2019-03-01T19:35:28.258Z,4.90
2019-03-01T19:37:53.247Z,4.90
2019-03-01T19:40:23.778Z,4.80
2019-03-01T19:42:52.218Z,4.90
2019-03-01T19:45:20.807Z,4.90
2019-03-01T19:47:49.217Z,5.00
2019-03-01T19:50:24.954Z,5.00
2019-03-01T19:52:52.019Z,5.00
2019-03-01T19:55:20.527Z,4.90
2019-03-01T19:57:49.324Z,4.90
2019-03-01T20:00:23.355Z,4.90
2019-03-01T20:02:51.867Z,4.90
2019-03-01T20:05:31.961Z,5.00
2019-03-01T20:08:01.388Z,5.00
2019-03-01T20:10:30.067Z,5.00
2019-03-01T20:12:58.494Z,5.10
2019-03-01T20:15:28.384Z,5.00
2019-03-01T20:17:57.056Z,5.10
2019-03-01T20:20:26.371Z,5.00
2019-03-01T20:22:55.247Z,4.90
2019-03-01T20:25:23.815Z,4.90
2019-03-01T20:27:52.354Z,5.00
2019-03-01T20:30:30.271Z,5.00
2019-03-01T20:32:56.273Z,5.00
2019-03-01T20:35:25.914Z,4.90
2019-03-01T20:37:54.839Z,4.90
2019-03-01T20:40:26.746Z,4.80
2019-03-01T20:42:55.753Z,4.90
2019-03-01T20:45:31.564Z,4.90
2019-03-01T20:48:00.158Z,4.90
2019-03-01T20:50:28.580Z,4.90
2019-03-01T20:52:57.008Z,4.90
2019-03-01T20:55:25.526Z,5.10
2019-03-01T20:57:53.942Z,5.00
2019-03-01T21:00:27.315Z,5.10
2019-03-01T21:02:56.897Z,5.10
2019-03-01T21:05:29.057Z,5.00
2019-03-01T21:07:55.514Z,4.90
2019-03-01T21:10:25.414Z,5.00
2019-03-01T21:12:53.861Z,5.10
2019-03-01T21:15:22.566Z,5.20
2019-03-01T21:17:52.815Z,5.10
2019-03-01T21:20:21.732Z,5.10
2019-03-01T21:22:50.195Z,5.10
2019-03-01T21:25:22.801Z,5.10
2019-03-01T21:27:51.282Z,5.00
2019-03-01T21:30:27.555Z,5.00
2019-03-01T21:32:56.238Z,5.00
2019-03-01T21:35:24.711Z,5.20
2019-03-01T21:37:53.390Z,5.10
2019-03-01T21:40:22.092Z,5.10
2019-03-01T21:42:54.876Z,5.10
2019-03-01T21:45:22.545Z,5.10
2019-03-01T21:47:51.209Z,5.00
2019-03-01T21:50:20.124Z,4.90
2019-03-01T21:52:48.616Z,4.90
2019-03-01T21:55:24.836Z,4.80
2019-03-01T21:57:52.868Z,4.80
2019-03-01T22:00:31.504Z,4.80
2019-03-01T22:02:59.091Z,4.80
2019-03-01T22:05:27.591Z,4.80
2019-03-01T22:07:56.041Z,4.90
2019-03-01T22:10:24.519Z,4.80
2019-03-01T22:12:53.082Z,4.80
2019-03-01T22:15:28.337Z,4.80
2019-03-01T22:17:56.968Z,4.80
2019-03-01T22:20:25.585Z,4.80
2019-03-01T22:22:54.003Z,4.70
2019-03-01T22:25:22.536Z,4.80
2019-03-01T22:27:50.966Z,4.80
2019-03-01T22:30:31.340Z,4.80
2019-03-01T22:32:59.839Z,4.80
2019-03-01T22:35:28.267Z,4.90
2019-03-01T22:37:56.700Z,5.00
2019-03-01T22:40:27.889Z,4.90
2019-03-01T22:42:55.279Z,4.90
2019-03-01T22:45:23.794Z,5.00
2019-03-01T22:47:52.292Z,5.00
2019-03-01T22:50:21.147Z,4.90
2019-03-01T22:52:49.647Z,5.00
2019-03-01T22:55:19.043Z,5.20
2019-03-01T22:57:47.490Z,5.10
2019-03-01T23:00:29.634Z,4.90
2019-03-01T23:02:58.338Z,4.90
2019-03-01T23:05:26.750Z,4.80
2019-03-01T23:07:56.872Z,4.90
2019-03-01T23:10:25.428Z,4.90
2019-03-01T23:12:53.843Z,4.80
2019-03-01T23:15:22.363Z,4.80
2019-03-01T23:17:50.775Z,4.90
2019-03-01T23:20:19.222Z,4.70
2019-03-01T23:22:47.638Z,4.70
2019-03-01T23:25:16.071Z,4.60
2019-03-01T23:27:44.498Z,4.80
2019-03-01T23:30:13.142Z,5.00
2019-03-01T23:32:41.578Z,5.10
2019-03-01T23:35:10.054Z,5.00
2019-03-01T23:37:38.847Z,5.10
2019-03-01T23:40:08.540Z,5.10
2019-03-01T23:42:37.031Z,4.90
2019-03-01T23:45:13.617Z,5.10
2019-03-01T23:47:40.690Z,5.20
2019-03-01T23:50:10.726Z,5.00
2019-03-01T23:52:39.134Z,5.20
2019-03-01T23:55:08.245Z,5.00
2019-03-01T23:57:38.016Z,5.10
